sensor_id;sensor_type;location;lat;lon;timestamp;P1;durP1;ratioP1;P2;durP2;ratioP2
57341;SDS011;43175;51.002;18.316;2023-07-28T00:02:03;10.20;;;4.80;;
57341;SDS011;43175;51.002;18.316;2023-07-28T00:04:29;10.80;;;4.80;;
57341;SDS011;43175;51.002;18.316;2023-07-28T00:06:54;11.10;;;4.80;;
57341;SDS011;43175;51.002;18.316;2023-07-28T00:09:20;11.20;;;4.70;;
57341;SDS011;43175;51.002;18.316;2023-07-28T00:11:45;10.30;;;4.90;;
57341;SDS011;43175;51.002;18.316;2023-07-28T00:14:11;10.30;;;4.40;;
57341;SDS011;43175;51.002;18.316;2023-07-28T00:16:36;12.20;;;4.50;;
57341;SDS011;43175;51.002;18.316;2023-07-28T00:19:03;11.80;;;5.00;;
57341;SDS011;43175;51.002;18.316;2023-07-28T00:21:29;10.70;;;4.70;;
57341;SDS011;43175;51.002;18.316;2023-07-28T00:23:54;9.40;;;4.10;;
57341;SDS011;43175;51.002;18.316;2023-07-28T00:26:20;9.80;;;4.30;;
57341;SDS011;43175;51.002;18.316;2023-07-28T00:28:45;10.90;;;4.40;;
57341;SDS011;43175;51.002;18.316;2023-07-28T00:31:11;10.50;;;4.40;;
57341;SDS011;43175;51.002;18.316;2023-07-28T00:33:36;10.30;;;4.50;;
57341;SDS011;43175;51.002;18.316;2023-07-28T00:36:03;10.20;;;4.30;;
57341;SDS011;43175;51.002;18.316;2023-07-28T00:38:29;11.10;;;4.70;;
57341;SDS011;43175;51.002;18.316;2023-07-28T00:40:54;11.20;;;4.20;;
57341;SDS011;43175;51.002;18.316;2023-07-28T00:43:19;9.10;;;4.10;;
57341;SDS011;43175;51.002;18.316;2023-07-28T00:45:45;10.70;;;4.40;;
57341;SDS011;43175;51.002;18.316;2023-07-28T00:48:11;9.70;;;3.90;;
57341;SDS011;43175;51.002;18.316;2023-07-28T00:50:38;10.70;;;4.40;;
57341;SDS011;43175;51.002;18.316;2023-07-28T00:53:06;10.40;;;4.10;;
57341;SDS011;43175;51.002;18.316;2023-07-28T00:55:32;9.90;;;4.10;;
57341;SDS011;43175;51.002;18.316;2023-07-28T00:57:58;10.20;;;4.20;;
57341;SDS011;43175;51.002;18.316;2023-07-28T01:00:24;10.40;;;4.60;;
57341;SDS011;43175;51.002;18.316;2023-07-28T01:02:49;10.20;;;3.90;;
57341;SDS011;43175;51.002;18.316;2023-07-28T01:05:15;9.30;;;4.00;;
57341;SDS011;43175;51.002;18.316;2023-07-28T01:10:22;10.20;;;3.90;;
57341;SDS011;43175;51.002;18.316;2023-07-28T01:12:50;9.10;;;3.70;;
57341;SDS011;43175;51.002;18.316;2023-07-28T01:15:15;9.90;;;3.90;;
57341;SDS011;43175;51.002;18.316;2023-07-28T01:17:41;10.50;;;3.90;;
57341;SDS011;43175;51.002;18.316;2023-07-28T01:20:07;10.00;;;3.70;;
57341;SDS011;43175;51.002;18.316;2023-07-28T01:28:13;15.60;;;4.00;;
57341;SDS011;43175;51.002;18.316;2023-07-28T01:30:42;9.60;;;3.70;;
57341;SDS011;43175;51.002;18.316;2023-07-28T01:33:08;10.00;;;3.80;;
57341;SDS011;43175;51.002;18.316;2023-07-28T01:35:36;9.60;;;3.80;;
57341;SDS011;43175;51.002;18.316;2023-07-28T01:38:03;9.70;;;3.90;;
57341;SDS011;43175;51.002;18.316;2023-07-28T01:40:28;9.80;;;4.00;;
57341;SDS011;43175;51.002;18.316;2023-07-28T01:42:54;11.40;;;3.80;;
57341;SDS011;43175;51.002;18.316;2023-07-28T01:45:20;9.60;;;3.70;;
57341;SDS011;43175;51.002;18.316;2023-07-28T01:47:45;8.90;;;3.70;;
57341;SDS011;43175;51.002;18.316;2023-07-28T01:50:11;9.60;;;3.80;;
57341;SDS011;43175;51.002;18.316;2023-07-28T01:52:36;10.70;;;3.90;;
57341;SDS011;43175;51.002;18.316;2023-07-28T01:55:02;10.00;;;4.10;;
57341;SDS011;43175;51.002;18.316;2023-07-28T01:57:30;10.00;;;3.80;;
57341;SDS011;43175;51.002;18.316;2023-07-28T01:59:57;10.20;;;3.60;;
57341;SDS011;43175;51.002;18.316;2023-07-28T02:02:23;9.20;;;3.80;;
57341;SDS011;43175;51.002;18.316;2023-07-28T02:04:48;9.50;;;3.90;;
57341;SDS011;43175;51.002;18.316;2023-07-28T02:07:13;9.60;;;4.00;;
57341;SDS011;43175;51.002;18.316;2023-07-28T02:09:39;9.70;;;3.80;;
57341;SDS011;43175;51.002;18.316;2023-07-28T02:12:05;9.70;;;3.90;;
57341;SDS011;43175;51.002;18.316;2023-07-28T02:14:31;9.50;;;3.70;;
57341;SDS011;43175;51.002;18.316;2023-07-28T02:16:56;9.60;;;3.90;;
57341;SDS011;43175;51.002;18.316;2023-07-28T02:19:22;10.30;;;3.70;;
57341;SDS011;43175;51.002;18.316;2023-07-28T02:21:47;9.40;;;3.90;;
57341;SDS011;43175;51.002;18.316;2023-07-28T02:24:13;10.50;;;3.90;;
57341;SDS011;43175;51.002;18.316;2023-07-28T02:26:38;9.50;;;3.80;;
57341;SDS011;43175;51.002;18.316;2023-07-28T02:29:04;9.60;;;3.60;;
57341;SDS011;43175;51.002;18.316;2023-07-28T02:31:29;10.60;;;3.90;;
57341;SDS011;43175;51.002;18.316;2023-07-28T02:33:55;9.30;;;3.80;;
57341;SDS011;43175;51.002;18.316;2023-07-28T02:36:20;9.10;;;3.70;;
57341;SDS011;43175;51.002;18.316;2023-07-28T02:38:46;9.70;;;3.80;;
57341;SDS011;43175;51.002;18.316;2023-07-28T02:41:11;9.40;;;3.60;;
57341;SDS011;43175;51.002;18.316;2023-07-28T02:43:37;11.30;;;3.80;;
57341;SDS011;43175;51.002;18.316;2023-07-28T02:46:02;9.50;;;3.60;;
57341;SDS011;43175;51.002;18.316;2023-07-28T02:48:29;10.50;;;3.80;;
57341;SDS011;43175;51.002;18.316;2023-07-28T02:50:54;10.30;;;3.90;;
57341;SDS011;43175;51.002;18.316;2023-07-28T02:53:20;9.30;;;3.80;;
57341;SDS011;43175;51.002;18.316;2023-07-28T02:55:46;11.00;;;3.40;;
57341;SDS011;43175;51.002;18.316;2023-07-28T02:58:12;9.90;;;3.60;;
57341;SDS011;43175;51.002;18.316;2023-07-28T03:00:42;8.90;;;3.40;;
57341;SDS011;43175;51.002;18.316;2023-07-28T03:03:09;9.50;;;3.50;;
57341;SDS011;43175;51.002;18.316;2023-07-28T03:05:36;10.40;;;3.70;;
57341;SDS011;43175;51.002;18.316;2023-07-28T03:08:02;9.90;;;3.60;;
57341;SDS011;43175;51.002;18.316;2023-07-28T03:10:28;10.10;;;3.20;;
57341;SDS011;43175;51.002;18.316;2023-07-28T03:12:54;9.50;;;3.40;;
57341;SDS011;43175;51.002;18.316;2023-07-28T03:15:20;10.30;;;3.70;;
57341;SDS011;43175;51.002;18.316;2023-07-28T03:17:50;9.60;;;3.30;;
57341;SDS011;43175;51.002;18.316;2023-07-28T03:20:16;9.70;;;3.80;;
57341;SDS011;43175;51.002;18.316;2023-07-28T03:22:42;8.90;;;3.40;;
57341;SDS011;43175;51.002;18.316;2023-07-28T03:25:08;9.80;;;3.50;;
57341;SDS011;43175;51.002;18.316;2023-07-28T03:27:34;9.50;;;3.30;;
57341;SDS011;43175;51.002;18.316;2023-07-28T03:30:00;9.50;;;3.50;;
57341;SDS011;43175;51.002;18.316;2023-07-28T03:32:26;9.70;;;3.50;;
57341;SDS011;43175;51.002;18.316;2023-07-28T03:34:52;9.80;;;3.40;;
57341;SDS011;43175;51.002;18.316;2023-07-28T03:37:18;9.40;;;3.50;;
57341;SDS011;43175;51.002;18.316;2023-07-28T03:39:44;9.50;;;3.30;;
57341;SDS011;43175;51.002;18.316;2023-07-28T03:42:10;8.30;;;3.30;;
57341;SDS011;43175;51.002;18.316;2023-07-28T03:44:35;9.50;;;3.50;;
57341;SDS011;43175;51.002;18.316;2023-07-28T03:47:03;9.10;;;3.60;;
57341;SDS011;43175;51.002;18.316;2023-07-28T03:49:29;9.20;;;3.30;;
57341;SDS011;43175;51.002;18.316;2023-07-28T03:51:54;10.50;;;3.90;;
57341;SDS011;43175;51.002;18.316;2023-07-28T03:54:20;10.30;;;3.60;;
57341;SDS011;43175;51.002;18.316;2023-07-28T03:56:45;9.20;;;3.40;;
57341;SDS011;43175;51.002;18.316;2023-07-28T03:59:11;8.60;;;3.30;;
57341;SDS011;43175;51.002;18.316;2023-07-28T04:01:37;10.30;;;3.40;;
57341;SDS011;43175;51.002;18.316;2023-07-28T04:04:02;10.20;;;3.30;;
57341;SDS011;43175;51.002;18.316;2023-07-28T04:06:45;9.20;;;3.40;;
57341;SDS011;43175;51.002;18.316;2023-07-28T04:09:15;10.20;;;3.80;;
57341;SDS011;43175;51.002;18.316;2023-07-28T04:11:41;9.70;;;3.40;;
57341;SDS011;43175;51.002;18.316;2023-07-28T04:14:07;10.20;;;3.80;;
57341;SDS011;43175;51.002;18.316;2023-07-28T04:16:32;9.10;;;3.60;;
57341;SDS011;43175;51.002;18.316;2023-07-28T04:18:58;10.70;;;3.30;;
57341;SDS011;43175;51.002;18.316;2023-07-28T04:21:24;9.70;;;3.30;;
57341;SDS011;43175;51.002;18.316;2023-07-28T04:23:49;9.50;;;3.30;;
57341;SDS011;43175;51.002;18.316;2023-07-28T04:26:16;10.60;;;3.70;;
57341;SDS011;43175;51.002;18.316;2023-07-28T04:28:41;9.90;;;3.60;;
57341;SDS011;43175;51.002;18.316;2023-07-28T04:31:07;8.70;;;3.30;;
57341;SDS011;43175;51.002;18.316;2023-07-28T04:33:32;9.60;;;3.60;;
57341;SDS011;43175;51.002;18.316;2023-07-28T04:35:58;11.90;;;3.40;;
57341;SDS011;43175;51.002;18.316;2023-07-28T04:38:24;8.90;;;3.20;;
57341;SDS011;43175;51.002;18.316;2023-07-28T04:40:49;9.10;;;3.10;;
57341;SDS011;43175;51.002;18.316;2023-07-28T04:43:15;10.00;;;3.60;;
57341;SDS011;43175;51.002;18.316;2023-07-28T04:45:41;8.90;;;3.30;;
57341;SDS011;43175;51.002;18.316;2023-07-28T04:48:07;9.50;;;3.50;;
57341;SDS011;43175;51.002;18.316;2023-07-28T04:50:32;9.50;;;3.60;;
57341;SDS011;43175;51.002;18.316;2023-07-28T04:52:59;11.10;;;3.80;;
57341;SDS011;43175;51.002;18.316;2023-07-28T04:55:24;10.40;;;3.40;;
57341;SDS011;43175;51.002;18.316;2023-07-28T04:57:52;8.50;;;3.20;;
57341;SDS011;43175;51.002;18.316;2023-07-28T05:00:18;10.10;;;3.30;;
57341;SDS011;43175;51.002;18.316;2023-07-28T05:02:44;9.50;;;3.30;;
57341;SDS011;43175;51.002;18.316;2023-07-28T05:05:10;9.20;;;3.70;;
57341;SDS011;43175;51.002;18.316;2023-07-28T05:07:35;9.90;;;3.30;;
57341;SDS011;43175;51.002;18.316;2023-07-28T05:10:01;9.00;;;3.10;;
57341;SDS011;43175;51.002;18.316;2023-07-28T05:12:27;9.90;;;3.40;;
57341;SDS011;43175;51.002;18.316;2023-07-28T05:14:53;9.40;;;3.40;;
57341;SDS011;43175;51.002;18.316;2023-07-28T05:17:19;9.90;;;3.20;;
57341;SDS011;43175;51.002;18.316;2023-07-28T05:19:44;9.80;;;3.30;;
57341;SDS011;43175;51.002;18.316;2023-07-28T05:22:10;10.00;;;3.40;;
57341;SDS011;43175;51.002;18.316;2023-07-28T05:24:35;9.60;;;3.60;;
57341;SDS011;43175;51.002;18.316;2023-07-28T05:27:01;9.80;;;3.30;;
57341;SDS011;43175;51.002;18.316;2023-07-28T05:29:26;9.00;;;3.20;;
57341;SDS011;43175;51.002;18.316;2023-07-28T05:31:52;12.30;;;3.10;;
57341;SDS011;43175;51.002;18.316;2023-07-28T05:34:17;9.40;;;3.30;;
57341;SDS011;43175;51.002;18.316;2023-07-28T05:36:43;10.90;;;3.20;;
57341;SDS011;43175;51.002;18.316;2023-07-28T05:39:09;9.10;;;3.20;;
57341;SDS011;43175;51.002;18.316;2023-07-28T05:41:36;9.20;;;3.10;;
57341;SDS011;43175;51.002;18.316;2023-07-28T05:44:02;8.80;;;3.20;;
57341;SDS011;43175;51.002;18.316;2023-07-28T05:46:28;9.20;;;3.30;;
57341;SDS011;43175;51.002;18.316;2023-07-28T05:48:54;9.30;;;3.00;;
57341;SDS011;43175;51.002;18.316;2023-07-28T05:51:22;9.90;;;3.30;;
57341;SDS011;43175;51.002;18.316;2023-07-28T05:53:47;9.10;;;3.20;;
57341;SDS011;43175;51.002;18.316;2023-07-28T05:56:14;8.60;;;3.00;;
57341;SDS011;43175;51.002;18.316;2023-07-28T05:58:39;11.00;;;3.50;;
57341;SDS011;43175;51.002;18.316;2023-07-28T06:01:05;9.20;;;3.30;;
57341;SDS011;43175;51.002;18.316;2023-07-28T06:03:31;9.00;;;3.40;;
57341;SDS011;43175;51.002;18.316;2023-07-28T06:05:56;10.00;;;3.30;;
57341;SDS011;43175;51.002;18.316;2023-07-28T06:08:22;8.70;;;3.20;;
57341;SDS011;43175;51.002;18.316;2023-07-28T06:10:48;8.60;;;3.50;;
57341;SDS011;43175;51.002;18.316;2023-07-28T06:13:13;8.90;;;3.20;;
57341;SDS011;43175;51.002;18.316;2023-07-28T06:15:39;9.60;;;3.40;;
57341;SDS011;43175;51.002;18.316;2023-07-28T06:18:06;8.70;;;3.10;;
57341;SDS011;43175;51.002;18.316;2023-07-28T06:20:31;9.40;;;3.30;;
57341;SDS011;43175;51.002;18.316;2023-07-28T06:22:57;9.60;;;3.30;;
57341;SDS011;43175;51.002;18.316;2023-07-28T06:25:22;10.20;;;3.40;;
57341;SDS011;43175;51.002;18.316;2023-07-28T06:27:47;10.10;;;3.20;;
57341;SDS011;43175;51.002;18.316;2023-07-28T06:30:13;10.40;;;3.20;;
57341;SDS011;43175;51.002;18.316;2023-07-28T06:32:39;8.90;;;3.20;;
57341;SDS011;43175;51.002;18.316;2023-07-28T06:35:04;8.60;;;3.10;;
57341;SDS011;43175;51.002;18.316;2023-07-28T06:37:32;9.40;;;3.50;;
57341;SDS011;43175;51.002;18.316;2023-07-28T06:39:58;10.00;;;3.00;;
57341;SDS011;43175;51.002;18.316;2023-07-28T06:42:24;9.50;;;3.20;;
57341;SDS011;43175;51.002;18.316;2023-07-28T06:44:51;8.60;;;3.10;;
57341;SDS011;43175;51.002;18.316;2023-07-28T06:47:17;9.00;;;3.40;;
57341;SDS011;43175;51.002;18.316;2023-07-28T06:49:43;8.90;;;3.30;;
57341;SDS011;43175;51.002;18.316;2023-07-28T06:52:09;8.80;;;3.40;;
57341;SDS011;43175;51.002;18.316;2023-07-28T06:54:34;8.80;;;3.20;;
57341;SDS011;43175;51.002;18.316;2023-07-28T06:57:00;9.70;;;3.20;;
57341;SDS011;43175;51.002;18.316;2023-07-28T06:59:25;10.00;;;3.20;;
57341;SDS011;43175;51.002;18.316;2023-07-28T07:01:51;11.20;;;3.20;;
57341;SDS011;43175;51.002;18.316;2023-07-28T07:04:16;9.90;;;3.40;;
57341;SDS011;43175;51.002;18.316;2023-07-28T07:06:42;9.70;;;3.20;;
57341;SDS011;43175;51.002;18.316;2023-07-28T07:09:08;10.70;;;3.50;;
57341;SDS011;43175;51.002;18.316;2023-07-28T07:11:33;10.00;;;3.30;;
57341;SDS011;43175;51.002;18.316;2023-07-28T07:13:59;10.50;;;3.90;;
57341;SDS011;43175;51.002;18.316;2023-07-28T07:16:24;10.60;;;3.30;;
57341;SDS011;43175;51.002;18.316;2023-07-28T07:18:53;9.80;;;3.40;;
57341;SDS011;43175;51.002;18.316;2023-07-28T07:21:18;9.80;;;3.40;;
57341;SDS011;43175;51.002;18.316;2023-07-28T07:23:44;9.40;;;3.20;;
57341;SDS011;43175;51.002;18.316;2023-07-28T07:26:09;9.00;;;3.30;;
57341;SDS011;43175;51.002;18.316;2023-07-28T07:28:34;8.30;;;3.20;;
57341;SDS011;43175;51.002;18.316;2023-07-28T07:31:01;10.00;;;3.20;;
57341;SDS011;43175;51.002;18.316;2023-07-28T07:33:26;9.00;;;3.10;;
57341;SDS011;43175;51.002;18.316;2023-07-28T07:35:52;9.20;;;3.30;;
57341;SDS011;43175;51.002;18.316;2023-07-28T07:38:18;7.90;;;3.00;;
57341;SDS011;43175;51.002;18.316;2023-07-28T07:40:47;8.20;;;3.10;;
57341;SDS011;43175;51.002;18.316;2023-07-28T07:43:13;8.80;;;3.20;;
57341;SDS011;43175;51.002;18.316;2023-07-28T07:45:44;9.40;;;3.00;;
57341;SDS011;43175;51.002;18.316;2023-07-28T07:48:12;8.80;;;3.40;;
57341;SDS011;43175;51.002;18.316;2023-07-28T07:50:38;9.50;;;3.20;;
57341;SDS011;43175;51.002;18.316;2023-07-28T07:53:04;8.40;;;3.20;;
57341;SDS011;43175;51.002;18.316;2023-07-28T07:55:30;9.30;;;3.30;;
57341;SDS011;43175;51.002;18.316;2023-07-28T07:57:57;11.10;;;3.00;;
57341;SDS011;43175;51.002;18.316;2023-07-28T08:00:22;7.60;;;2.80;;
57341;SDS011;43175;51.002;18.316;2023-07-28T08:02:49;8.30;;;2.80;;
57341;SDS011;43175;51.002;18.316;2023-07-28T08:05:15;8.30;;;3.00;;
57341;SDS011;43175;51.002;18.316;2023-07-28T08:07:41;8.10;;;3.00;;
57341;SDS011;43175;51.002;18.316;2023-07-28T08:10:07;8.70;;;3.10;;
57341;SDS011;43175;51.002;18.316;2023-07-28T08:12:33;7.60;;;2.80;;
57341;SDS011;43175;51.002;18.316;2023-07-28T08:14:59;8.40;;;3.10;;
57341;SDS011;43175;51.002;18.316;2023-07-28T08:17:25;8.10;;;3.00;;
57341;SDS011;43175;51.002;18.316;2023-07-28T08:19:50;7.10;;;2.60;;
57341;SDS011;43175;51.002;18.316;2023-07-28T08:22:16;7.20;;;2.60;;
57341;SDS011;43175;51.002;18.316;2023-07-28T08:24:41;7.60;;;2.60;;
57341;SDS011;43175;51.002;18.316;2023-07-28T08:27:06;8.00;;;2.60;;
57341;SDS011;43175;51.002;18.316;2023-07-28T08:29:32;7.70;;;2.50;;
57341;SDS011;43175;51.002;18.316;2023-07-28T08:31:57;7.20;;;2.50;;
57341;SDS011;43175;51.002;18.316;2023-07-28T08:34:23;7.40;;;2.60;;
57341;SDS011;43175;51.002;18.316;2023-07-28T08:36:48;7.40;;;2.40;;
57341;SDS011;43175;51.002;18.316;2023-07-28T08:39:14;8.40;;;2.40;;
57341;SDS011;43175;51.002;18.316;2023-07-28T08:41:41;7.10;;;2.40;;
57341;SDS011;43175;51.002;18.316;2023-07-28T08:44:07;6.50;;;2.30;;
57341;SDS011;43175;51.002;18.316;2023-07-28T08:46:33;7.20;;;2.30;;
57341;SDS011;43175;51.002;18.316;2023-07-28T08:49:02;6.50;;;2.10;;
57341;SDS011;43175;51.002;18.316;2023-07-28T08:51:28;6.90;;;2.20;;
57341;SDS011;43175;51.002;18.316;2023-07-28T08:53:54;7.50;;;2.40;;
57341;SDS011;43175;51.002;18.316;2023-07-28T08:56:20;6.40;;;2.30;;
57341;SDS011;43175;51.002;18.316;2023-07-28T08:58:46;7.00;;;2.30;;
57341;SDS011;43175;51.002;18.316;2023-07-28T09:01:11;6.10;;;2.10;;
57341;SDS011;43175;51.002;18.316;2023-07-28T09:03:40;7.70;;;2.20;;
57341;SDS011;43175;51.002;18.316;2023-07-28T09:06:07;7.00;;;2.40;;
57341;SDS011;43175;51.002;18.316;2023-07-28T09:08:35;6.20;;;2.10;;
57341;SDS011;43175;51.002;18.316;2023-07-28T09:11:01;5.70;;;2.20;;
57341;SDS011;43175;51.002;18.316;2023-07-28T09:13:34;6.90;;;2.20;;
57341;SDS011;43175;51.002;18.316;2023-07-28T09:16:19;5.90;;;2.10;;
57341;SDS011;43175;51.002;18.316;2023-07-28T09:18:45;8.30;;;2.80;;
57341;SDS011;43175;51.002;18.316;2023-07-28T09:21:17;7.00;;;2.30;;
57341;SDS011;43175;51.002;18.316;2023-07-28T09:23:46;8.30;;;2.40;;
57341;SDS011;43175;51.002;18.316;2023-07-28T09:26:13;7.20;;;2.40;;
57341;SDS011;43175;51.002;18.316;2023-07-28T09:28:40;6.80;;;2.20;;
57341;SDS011;43175;51.002;18.316;2023-07-28T09:31:06;7.20;;;2.20;;
57341;SDS011;43175;51.002;18.316;2023-07-28T09:33:34;5.90;;;2.20;;
57341;SDS011;43175;51.002;18.316;2023-07-28T09:36:07;7.00;;;2.40;;
57341;SDS011;43175;51.002;18.316;2023-07-28T09:38:38;7.20;;;2.70;;
57341;SDS011;43175;51.002;18.316;2023-07-28T09:41:06;7.70;;;2.50;;
57341;SDS011;43175;51.002;18.316;2023-07-28T09:43:37;7.40;;;2.30;;
57341;SDS011;43175;51.002;18.316;2023-07-28T09:46:04;8.70;;;2.60;;
57341;SDS011;43175;51.002;18.316;2023-07-28T09:48:31;7.50;;;2.20;;
57341;SDS011;43175;51.002;18.316;2023-07-28T09:51:00;7.40;;;2.50;;
57341;SDS011;43175;51.002;18.316;2023-07-28T09:53:29;7.80;;;2.50;;
57341;SDS011;43175;51.002;18.316;2023-07-28T09:55:56;8.70;;;2.60;;
57341;SDS011;43175;51.002;18.316;2023-07-28T09:58:22;7.80;;;2.50;;
57341;SDS011;43175;51.002;18.316;2023-07-28T10:00:50;7.60;;;2.50;;
57341;SDS011;43175;51.002;18.316;2023-07-28T10:03:16;8.40;;;2.40;;
57341;SDS011;43175;51.002;18.316;2023-07-28T10:05:42;7.70;;;2.40;;
57341;SDS011;43175;51.002;18.316;2023-07-28T10:08:08;6.10;;;2.20;;
57341;SDS011;43175;51.002;18.316;2023-07-28T10:10:34;6.50;;;2.20;;
57341;SDS011;43175;51.002;18.316;2023-07-28T10:13:00;8.20;;;2.30;;
57341;SDS011;43175;51.002;18.316;2023-07-28T10:15:29;6.70;;;2.10;;
57341;SDS011;43175;51.002;18.316;2023-07-28T10:17:57;6.60;;;2.20;;
57341;SDS011;43175;51.002;18.316;2023-07-28T10:23:22;5.80;;;2.20;;
57341;SDS011;43175;51.002;18.316;2023-07-28T10:25:55;6.60;;;2.30;;
57341;SDS011;43175;51.002;18.316;2023-07-28T10:28:25;7.30;;;2.20;;
57341;SDS011;43175;51.002;18.316;2023-07-28T10:30:54;6.20;;;2.20;;
57341;SDS011;43175;51.002;18.316;2023-07-28T10:33:34;5.90;;;2.20;;
57341;SDS011;43175;51.002;18.316;2023-07-28T10:38:59;8.50;;;2.20;;
57341;SDS011;43175;51.002;18.316;2023-07-28T10:44:28;7.70;;;2.50;;
57341;SDS011;43175;51.002;18.316;2023-07-28T10:46:55;10.80;;;3.10;;
57341;SDS011;43175;51.002;18.316;2023-07-28T10:49:21;11.00;;;3.00;;
57341;SDS011;43175;51.002;18.316;2023-07-28T10:51:47;11.20;;;3.40;;
57341;SDS011;43175;51.002;18.316;2023-07-28T10:54:13;11.00;;;3.10;;
57341;SDS011;43175;51.002;18.316;2023-07-28T10:56:42;8.80;;;3.30;;
57341;SDS011;43175;51.002;18.316;2023-07-28T10:59:07;8.00;;;3.00;;
57341;SDS011;43175;51.002;18.316;2023-07-28T11:01:36;9.80;;;3.00;;
57341;SDS011;43175;51.002;18.316;2023-07-28T11:04:10;8.20;;;3.00;;
57341;SDS011;43175;51.002;18.316;2023-07-28T11:06:41;10.10;;;3.00;;
57341;SDS011;43175;51.002;18.316;2023-07-28T11:09:08;8.40;;;3.00;;
57341;SDS011;43175;51.002;18.316;2023-07-28T11:11:35;8.60;;;3.10;;
57341;SDS011;43175;51.002;18.316;2023-07-28T11:14:02;7.60;;;3.10;;
57341;SDS011;43175;51.002;18.316;2023-07-28T11:16:29;8.20;;;2.90;;
57341;SDS011;43175;51.002;18.316;2023-07-28T11:18:57;8.10;;;2.80;;
57341;SDS011;43175;51.002;18.316;2023-07-28T11:21:28;8.10;;;2.80;;
57341;SDS011;43175;51.002;18.316;2023-07-28T11:23:55;7.80;;;2.80;;
57341;SDS011;43175;51.002;18.316;2023-07-28T11:26:21;8.50;;;2.70;;
57341;SDS011;43175;51.002;18.316;2023-07-28T11:28:47;7.20;;;2.60;;
57341;SDS011;43175;51.002;18.316;2023-07-28T11:31:13;8.10;;;2.70;;
57341;SDS011;43175;51.002;18.316;2023-07-28T11:33:39;6.80;;;2.50;;
57341;SDS011;43175;51.002;18.316;2023-07-28T11:36:05;8.00;;;2.40;;
57341;SDS011;43175;51.002;18.316;2023-07-28T11:38:31;9.00;;;3.30;;
57341;SDS011;43175;51.002;18.316;2023-07-28T11:40:58;8.20;;;2.90;;
57341;SDS011;43175;51.002;18.316;2023-07-28T11:43:25;7.00;;;2.50;;
57341;SDS011;43175;51.002;18.316;2023-07-28T11:45:50;8.50;;;2.60;;
57341;SDS011;43175;51.002;18.316;2023-07-28T11:48:16;7.90;;;2.70;;
57341;SDS011;43175;51.002;18.316;2023-07-28T11:50:43;7.40;;;2.80;;
57341;SDS011;43175;51.002;18.316;2023-07-28T11:53:10;7.80;;;2.90;;
57341;SDS011;43175;51.002;18.316;2023-07-28T11:55:37;7.10;;;2.60;;
57341;SDS011;43175;51.002;18.316;2023-07-28T11:58:07;7.90;;;2.50;;
57341;SDS011;43175;51.002;18.316;2023-07-28T12:00:37;7.50;;;2.80;;
57341;SDS011;43175;51.002;18.316;2023-07-28T12:03:05;8.10;;;3.00;;
57341;SDS011;43175;51.002;18.316;2023-07-28T12:05:35;7.20;;;2.60;;
57341;SDS011;43175;51.002;18.316;2023-07-28T12:08:02;7.40;;;2.80;;
57341;SDS011;43175;51.002;18.316;2023-07-28T12:10:29;7.20;;;2.70;;
57341;SDS011;43175;51.002;18.316;2023-07-28T12:12:57;8.70;;;3.00;;
57341;SDS011;43175;51.002;18.316;2023-07-28T12:20:41;7.60;;;2.90;;
57341;SDS011;43175;51.002;18.316;2023-07-28T12:23:12;6.90;;;2.70;;
57341;SDS011;43175;51.002;18.316;2023-07-28T12:25:38;7.60;;;2.50;;
57341;SDS011;43175;51.002;18.316;2023-07-28T12:28:04;8.40;;;2.60;;
57341;SDS011;43175;51.002;18.316;2023-07-28T12:30:30;6.30;;;2.30;;
57341;SDS011;43175;51.002;18.316;2023-07-28T12:32:56;6.20;;;2.30;;
57341;SDS011;43175;51.002;18.316;2023-07-28T12:35:22;6.90;;;2.50;;
57341;SDS011;43175;51.002;18.316;2023-07-28T12:40:19;6.50;;;2.40;;
57341;SDS011;43175;51.002;18.316;2023-07-28T12:42:45;6.60;;;2.40;;
57341;SDS011;43175;51.002;18.316;2023-07-28T12:45:12;7.00;;;2.40;;
57341;SDS011;43175;51.002;18.316;2023-07-28T12:47:38;7.10;;;2.50;;
57341;SDS011;43175;51.002;18.316;2023-07-28T12:50:05;8.50;;;2.60;;
57341;SDS011;43175;51.002;18.316;2023-07-28T12:52:31;7.90;;;2.50;;
57341;SDS011;43175;51.002;18.316;2023-07-28T12:54:57;7.00;;;2.60;;
57341;SDS011;43175;51.002;18.316;2023-07-28T12:57:23;8.70;;;2.90;;
57341;SDS011;43175;51.002;18.316;2023-07-28T12:59:49;8.10;;;2.80;;
57341;SDS011;43175;51.002;18.316;2023-07-28T13:02:15;7.70;;;2.90;;
57341;SDS011;43175;51.002;18.316;2023-07-28T13:04:40;7.90;;;3.20;;
57341;SDS011;43175;51.002;18.316;2023-07-28T13:07:06;10.40;;;3.10;;
57341;SDS011;43175;51.002;18.316;2023-07-28T13:09:32;6.90;;;2.60;;
57341;SDS011;43175;51.002;18.316;2023-07-28T13:11:57;8.20;;;2.80;;
57341;SDS011;43175;51.002;18.316;2023-07-28T13:14:23;7.50;;;2.80;;
57341;SDS011;43175;51.002;18.316;2023-07-28T13:16:49;7.80;;;2.60;;
57341;SDS011;43175;51.002;18.316;2023-07-28T13:19:16;8.40;;;2.50;;
57341;SDS011;43175;51.002;18.316;2023-07-28T13:21:41;6.90;;;2.50;;
57341;SDS011;43175;51.002;18.316;2023-07-28T13:24:07;6.20;;;2.30;;
57341;SDS011;43175;51.002;18.316;2023-07-28T13:26:32;8.20;;;2.80;;
57341;SDS011;43175;51.002;18.316;2023-07-28T13:28:58;8.10;;;2.60;;
57341;SDS011;43175;51.002;18.316;2023-07-28T13:31:26;7.70;;;2.80;;
57341;SDS011;43175;51.002;18.316;2023-07-28T13:33:52;6.70;;;2.50;;
57341;SDS011;43175;51.002;18.316;2023-07-28T13:36:18;7.00;;;2.40;;
57341;SDS011;43175;51.002;18.316;2023-07-28T13:38:43;9.10;;;2.60;;
57341;SDS011;43175;51.002;18.316;2023-07-28T13:41:09;7.90;;;2.80;;
57341;SDS011;43175;51.002;18.316;2023-07-28T13:43:34;8.50;;;2.90;;
57341;SDS011;43175;51.002;18.316;2023-07-28T13:46:05;7.50;;;2.60;;
57341;SDS011;43175;51.002;18.316;2023-07-28T13:48:31;6.80;;;2.40;;
57341;SDS011;43175;51.002;18.316;2023-07-28T13:50:57;7.00;;;2.50;;
57341;SDS011;43175;51.002;18.316;2023-07-28T13:53:23;7.00;;;2.60;;
57341;SDS011;43175;51.002;18.316;2023-07-28T13:55:49;7.50;;;2.60;;
57341;SDS011;43175;51.002;18.316;2023-07-28T13:58:15;7.60;;;2.70;;
57341;SDS011;43175;51.002;18.316;2023-07-28T14:00:41;7.30;;;2.50;;
57341;SDS011;43175;51.002;18.316;2023-07-28T14:03:07;5.90;;;2.40;;
57341;SDS011;43175;51.002;18.316;2023-07-28T14:05:32;7.30;;;2.70;;
57341;SDS011;43175;51.002;18.316;2023-07-28T14:07:58;9.60;;;3.00;;
57341;SDS011;43175;51.002;18.316;2023-07-28T14:10:23;7.90;;;2.90;;
57341;SDS011;43175;51.002;18.316;2023-07-28T14:12:49;8.30;;;2.80;;
57341;SDS011;43175;51.002;18.316;2023-07-28T14:15:15;7.40;;;2.70;;
57341;SDS011;43175;51.002;18.316;2023-07-28T14:17:41;7.40;;;2.80;;
57341;SDS011;43175;51.002;18.316;2023-07-28T14:20:06;7.80;;;2.90;;
57341;SDS011;43175;51.002;18.316;2023-07-28T14:22:33;8.30;;;2.70;;
57341;SDS011;43175;51.002;18.316;2023-07-28T14:24:59;7.50;;;2.60;;
57341;SDS011;43175;51.002;18.316;2023-07-28T14:27:24;9.90;;;2.90;;
57341;SDS011;43175;51.002;18.316;2023-07-28T14:29:50;7.70;;;2.90;;
57341;SDS011;43175;51.002;18.316;2023-07-28T14:32:15;7.30;;;2.70;;
57341;SDS011;43175;51.002;18.316;2023-07-28T14:34:41;7.40;;;2.70;;
57341;SDS011;43175;51.002;18.316;2023-07-28T14:37:06;7.70;;;2.60;;
57341;SDS011;43175;51.002;18.316;2023-07-28T14:39:32;6.50;;;2.40;;
57341;SDS011;43175;51.002;18.316;2023-07-28T14:41:57;7.90;;;2.70;;
57341;SDS011;43175;51.002;18.316;2023-07-28T14:44:23;8.00;;;2.50;;
57341;SDS011;43175;51.002;18.316;2023-07-28T14:46:48;8.00;;;2.70;;
57341;SDS011;43175;51.002;18.316;2023-07-28T14:49:13;7.00;;;2.60;;
57341;SDS011;43175;51.002;18.316;2023-07-28T14:51:39;7.30;;;3.00;;